Time;durP1;ratioP1;P1;durP2;ratioP2;P2;SDS_P1;SDS_P2;PMS_P1;PMS_P2;Temp;Humidity;BMP_temperature;BMP_pressure;BME280_temperature;BME280_humidity;BME280_pressure;Samples;Min_cycle;Max_cycle;Signal;HPM_P1;HPM_P2
2022/11/06 00:00:15;;;;;;;9.35;5.88;;;10.40;99.90;;;;;;5097589;27;20068;-82
2022/11/06 00:02:41;;;;;;;8.15;5.85;;;10.30;99.90;;;;;;5085871;28;20041;-82
2022/11/06 00:07:51;;;;;;;9.25;6.22;;;10.30;99.90;;;;;;5082611;28;20055;-83
2022/11/06 00:10:17;;;;;;;10.00;6.05;;;10.30;99.90;;;;;;5078463;28;20514;-82
2022/11/06 00:12:42;;;;;;;9.82;6.57;;;10.30;99.90;;;;;;5061115;28;20074;-82
2022/11/06 00:15:08;;;;;;;8.40;6.30;;;10.30;99.90;;;;;;5045333;28;20123;-82
2022/11/06 00:17:34;;;;;;;10.60;6.40;;;10.20;99.90;;;;;;5044648;28;20467;-83
2022/11/06 00:20:00;;;;;;;11.98;7.25;;;10.30;99.90;;;;;;5078455;28;20044;-83
2022/11/06 00:22:25;;;;;;;10.32;6.35;;;10.30;99.90;;;;;;5078141;28;20075;-82
2022/11/06 00:24:57;;;;;;;9.95;7.10;;;10.20;99.90;;;;;;5077917;28;20482;-83
2022/11/06 00:27:23;;;;;;;11.35;6.55;;;10.20;99.90;;;;;;5077977;28;20039;-83
2022/11/06 00:29:48;;;;;;;10.77;7.30;;;10.10;99.90;;;;;;5095045;28;20047;-83
2022/11/06 00:32:14;;;;;;;9.77;6.80;;;10.10;99.90;;;;;;5078283;28;20074;-83
2022/11/06 00:34:39;;;;;;;11.68;7.03;;;10.20;99.90;;;;;;5077551;28;20390;-83
2022/11/06 00:37:05;;;;;;;12.57;6.82;;;10.20;99.90;;;;;;5078006;28;20377;-83
2022/11/06 00:39:31;;;;;;;11.20;6.78;;;10.20;99.90;;;;;;5077610;28;20360;-83
2022/11/06 00:41:56;;;;;;;12.02;6.63;;;10.00;99.90;;;;;;5077966;28;20047;-83
2022/11/06 00:44:22;;;;;;;9.43;7.95;;;10.00;99.90;;;;;;5078164;28;20083;-83
2022/11/06 00:46:48;;;;;;;13.30;7.65;;;9.90;99.90;;;;;;5077275;28;20126;-83
2022/11/06 00:49:13;;;;;;;13.90;7.75;;;9.80;99.90;;;;;;5078279;28;20047;-83
2022/11/06 00:51:39;;;;;;;13.82;8.02;;;9.90;99.90;;;;;;5060637;28;20055;-83
2022/11/06 00:54:06;;;;;;;10.95;7.82;;;9.90;99.90;;;;;;5077834;28;20063;-83
2022/11/06 00:56:32;;;;;;;13.45;7.93;;;9.80;99.90;;;;;;5076960;28;20093;-83
2022/11/06 00:58:59;;;;;;;16.60;8.30;;;9.70;99.90;;;;;;5061463;28;20078;-83
2022/11/06 01:01:30;;;;;;;11.07;8.18;;;9.70;99.90;;;;;;5077970;28;20134;-82
2022/11/06 01:03:58;;;;;;;13.70;7.70;;;9.70;99.90;;;;;;5077341;28;20051;-83
2022/11/06 01:06:25;;;;;;;13.95;8.63;;;9.70;99.90;;;;;;5104013;28;20044;-83
2022/11/06 01:08:51;;;;;;;14.27;7.95;;;9.70;99.90;;;;;;5085742;28;20058;-83
2022/11/06 01:11:18;;;;;;;14.82;8.32;;;9.70;99.90;;;;;;5061621;28;20048;-83
2022/11/06 01:13:44;;;;;;;13.18;8.25;;;9.70;99.90;;;;;;5078020;28;20062;-83
2022/11/06 01:16:11;;;;;;;12.40;8.20;;;9.70;99.90;;;;;;5108182;27;20099;-83
2022/11/06 01:18:37;;;;;;;17.02;8.27;;;9.80;99.90;;;;;;5103253;27;20036;-82
2022/11/06 01:21:14;;;;;;;12.65;8.30;;;9.80;99.90;;;;;;5088259;28;20043;-83
2022/11/06 01:23:40;;;;;;;11.52;8.00;;;9.80;99.90;;;;;;5074847;28;20048;-83
2022/11/06 01:26:07;;;;;;;14.35;9.00;;;9.80;99.90;;;;;;5065128;28;20071;-83
2022/11/06 01:28:33;;;;;;;11.95;8.65;;;9.70;99.90;;;;;;5066886;28;20052;-83
2022/11/06 01:31:06;;;;;;;18.17;9.90;;;9.60;99.90;;;;;;5050916;28;20058;-83
2022/11/06 01:33:32;;;;;;;18.00;9.17;;;9.60;99.90;;;;;;5065205;28;20047;-83
2022/11/06 01:35:58;;;;;;;12.18;8.32;;;9.50;99.90;;;;;;5064113;28;20066;-83
2022/11/06 01:38:23;;;;;;;12.68;9.40;;;9.90;99.90;;;;;;5081353;28;20112;-84
2022/11/06 01:40:49;;;;;;;15.00;9.25;;;9.50;99.90;;;;;;5080697;28;20052;-84
2022/11/06 01:43:20;;;;;;;14.35;9.20;;;9.40;99.90;;;;;;5080793;28;20054;-84
2022/11/06 01:45:50;;;;;;;13.05;7.75;;;9.40;99.90;;;;;;5080991;28;20105;-83
2022/11/06 01:48:22;;;;;;;13.55;8.70;;;9.40;99.90;;;;;;5065044;28;20131;-83
2022/11/06 01:50:49;;;;;;;19.30;10.15;;;9.50;99.90;;;;;;5061499;28;20552;-82
2022/11/06 01:53:15;;;;;;;11.90;8.98;;;9.40;99.90;;;;;;5061290;28;20261;-84
2022/11/06 01:55:45;;;;;;;17.05;9.15;;;9.40;99.90;;;;;;5060530;28;20044;-83
2022/11/06 01:58:13;;;;;;;14.27;10.63;;;9.50;99.90;;;;;;5060742;28;20056;-83
2022/11/06 02:00:39;;;;;;;14.10;9.82;;;9.40;99.90;;;;;;5044501;28;20103;-83
2022/11/06 02:03:06;;;;;;;11.75;9.15;;;9.40;99.90;;;;;;5027444;28;20056;-83
2022/11/06 02:05:32;;;;;;;18.23;9.98;;;9.40;99.90;;;;;;5060728;28;20040;-83
2022/11/06 02:07:58;;;;;;;14.98;9.88;;;9.50;99.90;;;;;;5060165;28;20130;-84
2022/11/06 02:10:24;;;;;;;13.45;9.63;;;9.50;99.90;;;;;;5043964;28;20102;-83
2022/11/06 02:13:15;;;;;;;16.20;10.20;;;9.50;99.90;;;;;;5043483;28;20141;-83
2022/11/06 02:16:11;;;;;;;13.75;9.98;;;9.40;99.90;;;;;;5060366;28;20105;-83
2022/11/06 02:19:14;;;;;;;15.60;9.20;;;9.50;99.90;;;;;;5076490;28;20040;-83
2022/11/06 02:21:52;;;;;;;17.92;10.98;;;9.40;99.90;;;;;;5077075;28;20135;-83
2022/11/06 02:24:25;;;;;;;11.52;8.68;;;9.40;99.90;;;;;;5061517;28;20047;-82
2022/11/06 02:26:55;;;;;;;15.82;10.30;;;9.50;99.90;;;;;;5093824;28;20110;-82
2022/11/06 02:29:28;;;;;;;19.83;11.23;;;9.50;99.90;;;;;;5066904;28;20500;-83
2022/11/06 02:31:55;;;;;;;18.70;10.07;;;9.40;99.90;;;;;;5050586;28;20074;-83
2022/11/06 02:34:21;;;;;;;17.20;10.63;;;9.40;99.90;;;;;;5051316;28;20023;-83
2022/11/06 02:36:54;;;;;;;14.45;8.57;;;9.80;99.90;;;;;;5066865;28;20055;-83
2022/11/06 02:39:20;;;;;;;13.50;10.25;;;9.40;99.90;;;;;;5041253;28;20507;-83
2022/11/06 02:41:45;;;;;;;15.90;10.60;;;9.40;99.90;;;;;;5027212;28;20063;-83
2022/11/06 02:44:14;;;;;;;19.70;10.45;;;9.40;99.90;;;;;;5043172;28;20404;-83
2022/11/06 02:46:42;;;;;;;14.02;10.38;;;9.40;99.90;;;;;;5043268;28;20052;-83
2022/11/06 02:49:18;;;;;;;14.02;9.45;;;9.40;99.90;;;;;;5042899;28;20135;-83
2022/11/06 02:51:49;;;;;;;18.33;9.60;;;9.40;99.90;;;;;;5076230;28;20056;-83
2022/11/06 02:54:15;;;;;;;15.77;11.13;;;9.40;99.90;;;;;;5026523;28;20048;-83
2022/11/06 02:56:41;;;;;;;18.60;11.00;;;9.40;99.90;;;;;;5042728;28;20044;-83
2022/11/06 02:59:25;;;;;;;17.05;10.85;;;9.40;99.90;;;;;;5026255;28;20274;-83
2022/11/06 03:01:56;;;;;;;18.73;11.00;;;9.30;99.90;;;;;;5043192;28;20048;-82
2022/11/06 03:04:52;;;;;;;15.88;11.43;;;9.30;99.90;;;;;;5075629;28;20048;-82
2022/11/06 03:07:27;;;;;;;16.02;10.65;;;9.40;99.90;;;;;;5059187;28;20051;-83
2022/11/06 03:09:53;;;;;;;15.95;11.13;;;9.40;99.90;;;;;;5042529;28;20483;-82
2022/11/06 03:12:19;;;;;;;16.77;10.15;;;8.70;99.90;;;;;;5026428;28;20086;-82
2022/11/06 03:14:53;;;;;;;14.30;9.93;;;9.40;99.90;;;;;;5076072;28;20495;-82
2022/11/06 03:17:37;;;;;;;;;;;9.40;99.90;;;;;;5059366;28;20051;-82
2022/11/06 03:20:11;;;;;;;16.20;9.70;;;9.40;99.90;;;;;;5042007;28;19924;-82
2022/11/06 03:22:48;;;;;;;13.70;9.70;;;9.40;99.90;;;;;;5076027;28;20094;-83
2022/11/06 03:25:16;;;;;;;16.80;8.93;;;9.40;99.90;;;;;;5042284;28;20087;-83
2022/11/06 03:28:02;;;;;;;16.42;9.32;;;9.40;99.90;;;;;;5058563;28;20477;-83
2022/11/06 03:30:27;;;;;;;14.60;9.98;;;9.40;99.90;;;;;;5058934;28;20522;-82
2022/11/06 03:32:57;;;;;;;17.13;10.00;;;9.40;99.90;;;;;;5058921;28;20047;-83
2022/11/06 03:35:31;;;;;;;17.13;9.18;;;9.30;99.90;;;;;;5044518;28;20055;-83
2022/11/06 03:38:10;;;;;;;13.35;9.30;;;9.30;99.90;;;;;;5060809;28;20101;-83
2022/11/06 03:40:39;;;;;;;18.38;9.40;;;9.30;99.90;;;;;;5041766;28;20511;-83
2022/11/06 03:43:05;;;;;;;14.98;10.02;;;9.20;99.90;;;;;;5041977;28;20059;-83
2022/11/06 03:45:31;;;;;;;13.45;8.70;;;9.20;99.90;;;;;;5064277;28;20056;-83
2022/11/06 03:48:18;;;;;;;15.77;9.90;;;9.20;99.90;;;;;;5048685;28;20093;-83
2022/11/06 03:50:47;;;;;;;14.85;9.18;;;9.20;99.90;;;;;;5083051;28;20028;-82
2022/11/06 03:53:49;;;;;;;14.32;9.38;;;9.20;99.90;;;;;;5065641;28;20038;-83
2022/11/06 03:56:24;;;;;;;13.00;8.63;;;9.30;99.90;;;;;;5053155;28;20533;-83
2022/11/06 03:58:50;;;;;;;16.38;8.35;;;9.30;99.90;;;;;;5059349;28;20187;-83
2022/11/06 04:01:20;;;;;;;11.27;8.73;;;9.30;99.90;;;;;;5041760;28;20079;-82
2022/11/06 04:03:54;;;;;;;14.50;9.32;;;9.30;99.90;;;;;;5042708;28;20399;-83
2022/11/06 04:06:39;;;;;;;12.65;8.93;;;9.20;99.90;;;;;;5042241;28;20047;-83
2022/11/06 04:14:33;;;;;;;13.52;8.15;;;9.20;99.90;;;;;;5059604;28;20161;-82
2022/11/06 04:17:01;;;;;;;15.95;8.88;;;9.20;99.90;;;;;;5057547;28;20079;-82
2022/11/06 04:19:26;;;;;;;14.98;8.25;;;9.20;99.90;;;;;;5058227;28;20050;-83
2022/11/06 04:22:29;;;;;;;13.48;8.25;;;9.20;99.90;;;;;;5074892;28;20501;-82
2022/11/06 04:28:28;;;;;;;14.07;8.45;;;9.20;99.90;;;;;;5074911;28;20419;-83
2022/11/06 04:31:15;;;;;;;14.93;8.90;;;9.30;99.90;;;;;;5060232;28;20055;-83
2022/11/06 04:33:59;;;;;;;13.30;8.25;;;9.20;99.90;;;;;;5057971;28;20070;-82
2022/11/06 04:36:38;;;;;;;12.05;8.40;;;9.30;99.90;;;;;;5059643;28;20040;-83
2022/11/06 04:39:20;;;;;;;13.13;8.15;;;9.20;99.90;;;;;;5041971;28;20091;-83
2022/11/06 04:42:12;;;;;;;13.40;8.07;;;9.30;99.90;;;;;;5060230;28;20044;-83
2022/11/06 04:44:49;;;;;;;15.20;8.25;;;9.30;99.90;;;;;;5051263;28;20094;-83
2022/11/06 04:47:19;;;;;;;12.20;8.02;;;9.30;99.90;;;;;;5040408;28;20040;-83
2022/11/06 04:49:45;;;;;;;13.38;8.55;;;9.30;99.90;;;;;;5074782;28;20056;-83
2022/11/06 04:52:14;;;;;;;12.35;8.82;;;9.30;99.90;;;;;;5058052;28;20078;-83
2022/11/06 04:54:39;;;;;;;12.02;8.10;;;9.20;99.90;;;;;;5061844;28;20352;-83
2022/11/06 04:57:06;;;;;;;11.95;8.50;;;9.30;99.90;;;;;;5044188;28;20048;-83
2022/11/06 04:59:34;;;;;;;12.82;7.68;;;9.30;99.90;;;;;;5061937;28;20044;-83
2022/11/06 05:01:59;;;;;;;12.70;8.52;;;9.30;99.90;;;;;;5061772;28;20070;-83
2022/11/06 05:04:25;;;;;;;10.10;7.65;;;9.30;99.90;;;;;;5062376;28;20048;-82
2022/11/06 05:06:51;;;;;;;16.35;8.55;;;9.40;99.90;;;;;;5086493;28;20100;-82
2022/11/06 05:09:17;;;;;;;11.98;7.57;;;9.30;99.90;;;;;;5084868;28;20059;-83
2022/11/06 05:11:44;;;;;;;14.05;8.32;;;9.30;99.90;;;;;;5078919;28;20040;-83
2022/11/06 05:14:09;;;;;;;16.05;7.28;;;9.30;99.90;;;;;;5077894;28;20056;-82
2022/11/06 05:16:35;;;;;;;18.25;8.10;;;9.40;99.90;;;;;;5061526;28;20051;-82
2022/11/06 05:19:01;;;;;;;13.20;7.65;;;9.30;99.90;;;;;;5060762;28;20075;-83
2022/11/06 05:24:10;;;;;;;10.30;7.03;;;9.30;99.90;;;;;;5077774;28;20476;-82
2022/11/06 05:26:36;;;;;;;8.85;6.57;;;9.30;99.90;;;;;;5078005;28;20138;-83
2022/11/06 05:29:02;;;;;;;11.95;7.88;;;9.40;99.90;;;;;;5077867;28;20557;-82
2022/11/06 05:31:27;;;;;;;14.88;7.43;;;9.40;99.90;;;;;;5061212;28;20492;-82
2022/11/06 05:33:53;;;;;;;10.25;7.05;;;9.40;99.90;;;;;;5061534;28;20109;-83
2022/11/06 05:36:19;;;;;;;11.73;6.57;;;9.40;99.90;;;;;;5077006;28;20492;-82
2022/11/06 05:38:44;;;;;;;12.88;6.40;;;9.40;99.90;;;;;;5078174;28;20048;-83
2022/11/06 05:41:10;;;;;;;10.70;6.10;;;9.50;99.90;;;;;;5063314;28;20471;-83
2022/11/06 05:43:36;;;;;;;11.63;6.30;;;9.50;99.90;;;;;;5064242;28;20040;-82
2022/11/06 05:46:01;;;;;;;11.15;5.72;;;9.50;99.90;;;;;;5060132;28;20052;-82
2022/11/06 05:48:27;;;;;;;13.18;6.95;;;9.50;99.90;;;;;;5060567;28;20051;-82
2022/11/06 05:50:53;;;;;;;11.18;6.10;;;9.50;99.90;;;;;;5077114;28;20177;-82
2022/11/06 05:53:18;;;;;;;11.07;6.20;;;9.50;99.90;;;;;;5060807;28;20059;-82
2022/11/06 05:55:46;;;;;;;12.13;6.35;;;9.50;99.90;;;;;;5044059;28;20050;-82
2022/11/06 05:58:12;;;;;;;11.50;6.15;;;9.50;99.90;;;;;;5060549;28;20051;-82
2022/11/06 06:00:38;;;;;;;11.30;5.57;;;9.50;99.90;;;;;;5077506;28;20412;-82
2022/11/06 06:03:03;;;;;;;13.00;5.72;;;9.50;99.90;;;;;;5060460;28;20058;-82
2022/11/06 06:05:29;;;;;;;10.02;4.97;;;9.50;99.90;;;;;;5076137;28;20052;-82
2022/11/06 06:07:55;;;;;;;7.07;4.80;;;9.40;99.90;;;;;;5076764;28;20104;-82
2022/11/06 06:10:20;;;;;;;9.38;4.75;;;9.40;99.90;;;;;;5076602;28;20047;-82
2022/11/06 06:12:49;;;;;;;10.57;4.97;;;9.40;99.90;;;;;;5077279;28;20048;-83
2022/11/06 06:15:14;;;;;;;11.60;5.22;;;9.40;99.90;;;;;;5076938;28;20573;-82
2022/11/06 06:17:40;;;;;;;11.48;4.43;;;9.40;99.90;;;;;;5059888;28;20040;-83
2022/11/06 06:20:07;;;;;;;10.15;5.43;;;9.50;99.90;;;;;;5059984;28;20079;-83
2022/11/06 06:22:32;;;;;;;9.82;4.78;;;9.50;99.90;;;;;;5099421;28;20044;-83
2022/11/06 06:24:58;;;;;;;9.82;5.13;;;9.90;99.90;;;;;;5084706;28;20032;-81
2022/11/06 06:27:26;;;;;;;10.90;5.38;;;9.60;99.90;;;;;;5084191;28;20027;-83
2022/11/06 06:29:52;;;;;;;7.07;4.55;;;9.50;99.90;;;;;;5082883;28;20059;-83
2022/11/06 06:32:18;;;;;;;12.63;4.90;;;9.50;99.90;;;;;;5046295;28;20464;-83
2022/11/06 06:34:43;;;;;;;10.40;5.22;;;9.50;99.90;;;;;;5076309;28;20127;-83
2022/11/06 06:37:09;;;;;;;9.48;5.05;;;9.60;99.90;;;;;;5043111;28;20047;-83
2022/11/06 06:39:35;;;;;;;9.90;4.95;;;9.60;99.90;;;;;;5076383;28;20052;-83
2022/11/06 06:42:00;;;;;;;14.02;5.53;;;9.60;99.90;;;;;;5077031;28;20430;-83
2022/11/06 06:44:26;;;;;;;8.82;4.97;;;9.70;99.90;;;;;;5075969;28;20048;-83
2022/11/06 06:46:52;;;;;;;7.78;4.70;;;9.70;99.90;;;;;;5076280;28;20044;-83
2022/11/06 06:49:18;;;;;;;9.00;4.40;;;9.80;99.90;;;;;;5059261;28;20075;-83
2022/11/06 06:51:43;;;;;;;12.13;4.47;;;9.90;99.90;;;;;;5061504;28;20056;-83
2022/11/06 06:54:09;;;;;;;11.60;4.70;;;9.80;99.90;;;;;;5076232;28;20063;-83
2022/11/06 06:56:35;;;;;;;7.68;4.15;;;9.80;99.90;;;;;;5059167;28;20052;-83
2022/11/06 06:59:00;;;;;;;6.30;4.43;;;9.90;99.90;;;;;;5076261;28;20130;-83
2022/11/06 07:01:26;;;;;;;10.10;4.60;;;9.90;99.90;;;;;;5058543;28;20047;-83
2022/11/06 07:03:52;;;;;;;9.70;4.18;;;9.80;99.90;;;;;;5059258;28;20044;-83
2022/11/06 07:06:18;;;;;;;9.10;4.20;;;9.90;99.90;;;;;;5058725;28;20543;-83
2022/11/06 07:08:44;;;;;;;7.47;4.13;;;9.90;99.90;;;;;;5042627;28;20476;-83
2022/11/06 07:11:10;;;;;;;9.68;4.05;;;9.90;99.90;;;;;;5058975;28;20040;-83
2022/11/06 07:13:35;;;;;;;12.32;4.45;;;10.00;99.90;;;;;;5041926;28;20131;-82
2022/11/06 07:16:05;;;;;;;8.38;4.05;;;10.00;99.90;;;;;;5041687;28;20048;-83
2022/11/06 07:18:30;;;;;;;9.52;4.10;;;10.00;99.90;;;;;;5058700;28;20480;-83
2022/11/06 07:20:56;;;;;;;6.88;3.92;;;10.00;99.90;;;;;;5042426;28;20100;-83
2022/11/06 07:23:22;;;;;;;7.07;3.50;;;10.00;99.90;;;;;;5075565;28;20059;-83
2022/11/06 07:25:54;;;;;;;13.30;3.50;;;10.20;99.90;;;;;;5075234;28;20043;-83
2022/11/06 07:28:19;;;;;;;7.30;3.33;;;10.00;99.90;;;;;;5042575;28;20123;-83
2022/11/06 07:30:45;;;;;;;5.70;3.55;;;10.10;99.90;;;;;;5058570;28;20090;-83
2022/11/06 07:33:11;;;;;;;6.35;3.97;;;10.00;99.90;;;;;;5058235;28;20047;-83
2022/11/06 07:35:37;;;;;;;6.05;3.28;;;10.00;99.90;;;;;;5025161;28;20415;-83
2022/11/06 07:38:06;;;;;;;6.10;3.20;;;10.10;99.90;;;;;;5072522;28;20055;-83
2022/11/06 07:40:35;;;;;;;7.30;3.90;;;10.10;99.90;;;;;;5082792;28;20080;-83
2022/11/06 07:43:05;;;;;;;8.70;3.10;;;10.00;99.90;;;;;;5067002;28;20032;-83
2022/11/06 07:45:30;;;;;;;7.38;3.25;;;10.10;99.90;;;;;;5063769;28;20055;-82
2022/11/06 07:47:56;;;;;;;6.82;3.38;;;10.10;99.90;;;;;;5082591;28;20424;-83
2022/11/06 07:50:22;;;;;;;9.02;3.70;;;10.20;99.90;;;;;;5047307;28;20056;-83
2022/11/06 07:52:48;;;;;;;7.93;3.20;;;9.40;99.90;;;;;;5076942;28;20056;-83
2022/11/06 07:55:13;;;;;;;7.70;3.15;;;10.20;99.90;;;;;;5059828;28;20059;-83
2022/11/06 07:57:39;;;;;;;6.78;3.10;;;10.30;99.90;;;;;;5041164;28;20044;-83
2022/11/06 08:00:05;;;;;;;10.05;2.97;;;10.30;99.90;;;;;;5074590;28;20369;-83
2022/11/06 08:02:31;;;;;;;7.03;3.25;;;10.20;99.90;;;;;;5074284;28;20036;-83
2022/11/06 08:04:56;;;;;;;8.65;3.13;;;10.30;99.90;;;;;;5057837;28;20051;-82
2022/11/06 08:07:22;;;;;;;8.00;2.90;;;10.30;99.90;;;;;;5058048;28;20142;-83
2022/11/06 08:09:48;;;;;;;6.78;3.10;;;10.20;99.90;;;;;;5041602;28;20043;-83
2022/11/06 08:12:14;;;;;;;5.80;2.70;;;10.30;99.90;;;;;;5026011;28;20052;-83
2022/11/06 08:14:40;;;;;;;9.27;2.95;;;10.20;99.90;;;;;;5057375;28;20063;-83
2022/11/06 08:17:06;;;;;;;7.45;2.88;;;10.10;99.90;;;;;;5041358;28;20492;-82
2022/11/06 08:19:31;;;;;;;9.10;3.25;;;10.10;99.90;;;;;;5057272;28;20089;-82
2022/11/06 08:21:57;;;;;;;7.22;3.72;;;10.10;99.90;;;;;;5041703;28;20043;-82
2022/11/06 08:24:23;;;;;;;5.65;2.58;;;10.10;99.90;;;;;;5057000;28;20067;-83
2022/11/06 08:26:48;;;;;;;6.20;2.22;;;10.20;99.90;;;;;;5056924;28;20051;-83
2022/11/06 08:29:14;;;;;;;9.73;3.17;;;10.30;99.90;;;;;;5040846;28;20048;-83
2022/11/06 08:31:40;;;;;;;5.03;2.60;;;10.40;99.90;;;;;;5041333;28;20078;-82
2022/11/06 08:34:07;;;;;;;4.80;2.90;;;10.40;99.90;;;;;;5057583;28;20048;-83
2022/11/06 08:36:37;;;;;;;3.92;2.55;;;10.50;99.90;;;;;;5040932;28;20086;-82
2022/11/06 08:39:03;;;;;;;7.18;2.75;;;10.60;99.90;;;;;;5024585;28;20446;-82
2022/11/06 08:41:28;;;;;;;7.00;2.30;;;10.50;99.90;;;;;;5073971;28;20047;-83
2022/11/06 08:43:54;;;;;;;6.63;2.40;;;10.50;99.90;;;;;;5040708;28;20104;-82
2022/11/06 08:46:19;;;;;;;7.50;2.67;;;10.50;99.90;;;;;;5057666;28;20178;-82
2022/11/06 08:48:45;;;;;;;6.97;3.00;;;10.40;99.90;;;;;;5040249;28;20496;-82
2022/11/06 08:51:11;;;;;;;7.60;2.60;;;10.40;99.90;;;;;;5056704;28;20160;-82
2022/11/06 08:53:37;;;;;;;4.63;2.53;;;10.40;99.90;;;;;;5081230;28;20149;-83
2022/11/06 08:56:03;;;;;;;6.85;2.53;;;10.40;99.90;;;;;;5082286;28;20032;-82
2022/11/06 08:58:29;;;;;;;7.32;2.65;;;10.40;99.90;;;;;;5065709;28;20028;-82
2022/11/06 09:00:54;;;;;;;7.35;2.80;;;10.40;99.90;;;;;;5074150;28;20131;-81
2022/11/06 09:03:20;;;;;;;5.68;2.40;;;10.40;99.90;;;;;;5096598;28;20070;-81
2022/11/06 09:05:46;;;;;;;6.95;2.95;;;10.40;99.90;;;;;;5056766;28;20052;-81
2022/11/06 09:08:11;;;;;;;6.07;2.67;;;10.40;99.90;;;;;;5040785;28;20075;-82
2022/11/06 09:10:38;;;;;;;5.47;2.58;;;10.40;99.90;;;;;;5040226;28;20039;-82
2022/11/06 09:13:03;;;;;;;6.25;2.67;;;10.40;99.90;;;;;;5063865;28;20047;-82
2022/11/06 09:15:29;;;;;;;4.63;3.17;;;10.40;99.90;;;;;;5065737;28;20103;-82
2022/11/06 09:17:55;;;;;;;7.03;3.10;;;10.40;99.90;;;;;;5047687;28;20055;-81
2022/11/06 09:20:23;;;;;;;5.47;2.95;;;10.60;99.90;;;;;;5063775;28;20090;-82
2022/11/06 09:22:49;;;;;;;5.65;2.78;;;11.00;99.90;;;;;;5053623;28;20112;-81
2022/11/06 09:25:15;;;;;;;10.15;3.03;;;11.10;99.90;;;;;;5049539;28;20560;-80
2022/11/06 09:27:53;;;;;;;6.32;3.05;;;11.10;99.90;;;;;;5064430;28;20125;-81
2022/11/06 09:30:19;;;;;;;8.85;2.55;;;11.20;99.90;;;;;;5066380;28;20478;-81
2022/11/06 09:32:53;;;;;;;6.35;2.60;;;11.20;99.90;;;;;;5080839;28;20385;-80
2022/11/06 09:35:20;;;;;;;5.67;3.03;;;11.20;99.90;;;;;;5084583;28;20044;-82
2022/11/06 09:37:45;;;;;;;4.65;2.22;;;11.20;99.90;;;;;;5067618;28;20306;-81
2022/11/06 09:40:26;;;;;;;5.45;2.33;;;11.30;99.90;;;;;;5076085;28;20119;-81
2022/11/06 09:43:10;;;;;;;8.82;2.95;;;11.60;99.90;;;;;;5092752;28;20035;-81
2022/11/06 09:45:37;;;;;;;6.13;2.42;;;11.70;99.90;;;;;;5114433;28;20047;-81
2022/11/06 09:48:09;;;;;;;5.57;2.20;;;11.60;99.90;;;;;;5061250;28;20490;-80
2022/11/06 09:50:38;;;;;;;7.13;2.53;;;11.80;99.90;;;;;;5096454;28;20123;-81
2022/11/06 09:53:36;;;;;;;3.22;2.28;;;12.10;99.90;;;;;;5068266;28;20178;-80
2022/11/06 09:56:02;;;;;;;8.02;2.28;;;12.00;99.90;;;;;;5070668;28;20060;-81
2022/11/06 09:58:39;;;;;;;6.40;2.38;;;12.20;99.90;;;;;;5103304;28;20053;-81
2022/11/06 10:01:12;;;;;;;4.65;1.95;;;12.30;99.90;;;;;;5066586;28;20122;-82
2022/11/06 10:03:45;;;;;;;5.13;1.83;;;12.30;99.90;;;;;;5115326;28;20048;-81
2022/11/06 10:06:11;;;;;;;6.18;2.35;;;12.20;99.90;;;;;;5094990;28;20059;-80
2022/11/06 10:08:37;;;;;;;3.03;2.15;;;12.30;99.90;;;;;;5104867;28;20056;-81
2022/11/06 10:11:09;;;;;;;5.38;1.92;;;12.30;99.90;;;;;;5120665;28;20111;-80
2022/11/06 10:13:58;;;;;;;9.05;2.50;;;12.30;99.90;;;;;;5130035;28;20019;-80
2022/11/06 10:16:54;;;;;;;4.05;1.73;;;12.30;99.90;;;;;;5108391;28;20050;-80
2022/11/06 10:19:47;;;;;;;6.03;2.00;;;12.40;99.90;;;;;;5091954;28;20541;-79
2022/11/06 10:22:17;;;;;;;4.28;1.90;;;12.20;99.90;;;;;;5108006;28;20121;-80
2022/11/06 10:24:45;;;;;;;7.18;2.05;;;12.20;99.90;;;;;;5079520;28;20044;-80
2022/11/06 10:27:32;;;;;;;6.20;2.08;;;12.20;99.90;;;;;;5060463;28;20079;-80
2022/11/06 10:30:05;;;;;;;8.32;2.25;;;12.10;99.90;;;;;;5093599;28;20064;-80
2022/11/06 10:32:53;;;;;;;9.32;3.20;;;12.10;99.90;;;;;;5059967;28;20080;-80
2022/11/06 10:35:29;;;;;;;3.72;1.80;;;12.10;99.90;;;;;;5078373;28;20044;-81
2022/11/06 10:38:03;;;;;;;4.55;2.00;;;12.00;99.90;;;;;;5092467;28;20047;-81
2022/11/06 10:40:30;;;;;;;7.03;2.10;;;12.10;99.90;;;;;;5076785;28;20141;-80
2022/11/06 10:43:18;;;;;;;5.53;2.08;;;12.00;99.90;;;;;;5075763;28;20048;-81
2022/11/06 10:45:46;;;;;;;8.32;2.67;;;11.90;99.90;;;;;;5092469;28;20054;-81
2022/11/06 10:48:36;;;;;;;5.28;2.05;;;11.80;99.90;;;;;;5074945;28;20060;-81
2022/11/06 10:51:25;;;;;;;9.85;2.35;;;11.80;99.90;;;;;;5060379;28;20392;-82
2022/11/06 10:54:09;;;;;;;4.18;2.20;;;11.60;99.90;;;;;;5078384;28;20455;-81
2022/11/06 10:56:46;;;;;;;6.45;2.22;;;11.60;99.90;;;;;;5092429;28;20396;-82
2022/11/06 10:59:13;;;;;;;7.78;2.72;;;11.50;99.90;;;;;;5060235;28;20062;-83
2022/11/06 11:01:38;;;;;;;4.55;2.80;;;12.50;99.90;;;;;;5075612;28;20052;-81
2022/11/06 11:04:04;;;;;;;7.57;3.13;;;11.30;99.90;;;;;;5074987;28;20056;-81
2022/11/06 11:06:30;;;;;;;7.70;2.70;;;11.30;99.90;;;;;;5092498;28;20052;-82
2022/11/06 11:08:55;;;;;;;4.32;2.33;;;11.20;99.90;;;;;;5075027;28;20073;-81
2022/11/06 11:11:40;;;;;;;6.60;2.78;;;11.30;99.90;;;;;;5092061;28;20443;-82
2022/11/06 11:14:08;;;;;;;;;;;11.30;99.90;;;;;;5075254;28;20191;-81
2022/11/06 11:16:36;;;;;;;7.45;2.72;;;11.30;99.90;;;;;;5091758;28;19924;-82
2022/11/06 11:19:21;;;;;;;4.82;3.05;;;11.50;99.90;;;;;;5077335;28;20057;-81
2022/11/06 11:21:59;;;;;;;6.63;2.90;;;11.70;99.90;;;;;;5084580;28;20044;-81
2022/11/06 11:24:25;;;;;;;4.38;2.75;;;11.80;99.90;;;;;;5069603;28;20062;-82
2022/11/06 11:27:12;;;;;;;7.90;3.42;;;12.00;99.90;;;;;;5104482;28;20087;-82
2022/11/06 11:29:44;;;;;;;8.77;2.85;;;12.00;99.90;;;;;;5084502;28;20032;-82
2022/11/06 11:32:15;;;;;;;5.88;2.70;;;12.10;99.90;;;;;;5082810;28;20145;-84
2022/11/06 11:34:49;;;;;;;8.73;3.30;;;12.00;99.90;;;;;;5078881;28;20039;-84
2022/11/06 11:37:22;;;;;;;;;;;12.10;99.90;;;;;;5085692;28;20391;-83
2022/11/06 11:39:48;;;;;;;7.07;2.65;;;12.20;99.90;;;;;;5074885;28;19908;-83
2022/11/06 11:42:20;;;;;;;6.65;2.30;;;12.10;99.90;;;;;;5122883;28;20082;-84
2022/11/06 11:44:46;;;;;;;5.82;2.58;;;12.10;99.90;;;;;;5076274;28;20060;-84
2022/11/06 11:47:22;;;;;;;5.20;2.50;;;12.20;99.90;;;;;;5047701;28;20051;-85
2022/11/06 11:49:48;;;;;;;8.30;2.42;;;12.20;99.90;;;;;;5098995;28;20051;-84
2022/11/06 11:52:17;;;;;;;7.65;2.50;;;12.30;99.90;;;;;;5066436;28;20109;-83
2022/11/06 11:54:46;;;;;;;7.88;2.97;;;12.30;99.90;;;;;;5063687;28;20040;-84
2022/11/06 11:57:20;;;;;;;8.57;2.28;;;12.40;99.90;;;;;;5074437;28;20074;-83
2022/11/06 11:59:59;;;;;;;2.40;2.00;;;12.30;99.90;;;;;;5091533;28;20060;-83
2022/11/06 12:02:28;;;;;;;5.43;2.40;;;12.40;99.90;;;;;;5077786;28;20059;-83
2022/11/06 12:05:02;;;;;;;6.25;2.38;;;12.50;99.90;;;;;;5074415;28;20048;-84
2022/11/06 12:07:40;;;;;;;5.88;2.10;;;12.50;99.90;;;;;;5075357;28;20048;-83
2022/11/06 12:10:24;;;;;;;6.95;2.28;;;12.60;99.90;;;;;;5057808;28;20087;-83
2022/11/06 12:12:50;;;;;;;2.25;1.70;;;12.50;99.90;;;;;;5090948;28;20080;-83
2022/11/06 12:15:20;;;;;;;5.13;1.67;;;12.60;99.90;;;;;;5057688;28;20518;-83
2022/11/06 12:17:51;;;;;;;4.28;1.80;;;12.70;99.90;;;;;;5074100;28;20090;-83
2022/11/06 12:20:20;;;;;;;5.65;1.67;;;12.70;99.90;;;;;;5060790;28;20051;-82
2022/11/06 12:22:46;;;;;;;5.50;2.17;;;12.80;99.90;;;;;;5059001;28;20063;-83
2022/11/06 12:25:38;;;;;;;4.38;1.70;;;12.80;99.90;;;;;;5057197;28;20044;-83
2022/11/06 12:28:03;;;;;;;5.80;1.80;;;12.80;99.90;;;;;;5058268;28;20101;-82
2022/11/06 12:30:31;;;;;;;8.20;1.70;;;12.90;99.90;;;;;;5041112;28;20048;-83
2022/11/06 12:33:23;;;;;;;3.75;1.60;;;13.10;99.90;;;;;;5073889;28;20071;-83
2022/11/06 12:36:09;;;;;;;5.05;2.80;;;13.00;99.90;;;;;;5073939;28;20095;-83
2022/11/06 12:38:43;;;;;;;4.03;1.50;;;13.20;99.90;;;;;;5091378;28;20404;-83
2022/11/06 12:41:29;;;;;;;4.15;1.90;;;13.20;99.90;;;;;;5074536;28;20400;-83
2022/11/06 12:43:55;;;;;;;4.13;1.55;;;13.10;99.90;;;;;;5087663;28;20150;-82
2022/11/06 12:46:47;;;;;;;4.60;1.80;;;13.10;99.90;;;;;;5081994;28;20028;-82
2022/11/06 12:49:50;;;;;;;3.63;1.77;;;13.10;99.90;;;;;;5115421;28;20028;-84
2022/11/06 12:52:25;;;;;;;6.32;1.80;;;13.00;99.90;;;;;;5073495;28;20565;-82
2022/11/06 12:55:22;;;;;;;5.43;1.88;;;13.00;99.90;;;;;;5073907;28;20067;-83
2022/11/06 12:58:19;;;;;;;4.72;1.75;;;12.90;99.90;;;;;;5058815;28;20044;-82
2022/11/06 13:01:03;;;;;;;3.53;1.50;;;12.70;99.90;;;;;;5078297;28;20027;-81
2022/11/06 13:03:31;;;;;;;5.00;2.00;;;12.70;99.90;;;;;;5090825;28;20044;-83
2022/11/06 13:06:12;;;;;;;6.40;1.98;;;12.60;99.90;;;;;;5092417;28;20087;-83
2022/11/06 13:09:28;;;;;;;4.50;1.60;;;12.60;99.90;;;;;;5074457;28;20396;-84
2022/11/06 13:12:23;;;;;;;4.57;1.67;;;12.60;99.90;;;;;;5048838;28;20070;-83
2022/11/06 13:15:07;;;;;;;6.75;2.42;;;12.50;99.90;;;;;;5081173;28;20051;-85
2022/11/06 13:17:37;;;;;;;6.13;1.77;;;12.60;99.90;;;;;;5099771;28;20048;-83
2022/11/06 13:20:09;;;;;;;9.02;2.60;;;12.60;99.90;;;;;;5095139;28;20062;-85